createdAt,value
2022-10-20T00:01:43.837Z,6.20
2022-10-20T00:04:34.093Z,5.90
2022-10-20T00:07:25.380Z,6.20
2022-10-20T00:10:16.016Z,6.00
2022-10-20T00:13:06.352Z,6.10
2022-10-20T00:15:59.516Z,5.80
2022-10-20T00:18:50.209Z,6.20
2022-10-20T00:21:40.108Z,6.10
2022-10-20T00:24:30.487Z,6.10
2022-10-20T00:27:20.259Z,6.10
2022-10-20T00:30:12.614Z,5.80
2022-10-20T00:33:03.188Z,6.30
2022-10-20T00:35:54.069Z,5.70
2022-10-20T00:38:45.133Z,6.10
2022-10-20T00:41:35.889Z,5.70
2022-10-20T00:44:52.213Z,6.20
2022-10-20T00:47:48.643Z,6.40
2022-10-20T00:50:43.007Z,5.70
2022-10-20T00:53:34.316Z,5.60
2022-10-20T00:56:24.343Z,5.70
2022-10-20T00:59:18.816Z,5.60
2022-10-20T01:02:10.629Z,5.60
2022-10-20T01:05:02.149Z,6.00
2022-10-20T01:07:51.881Z,5.10
2022-10-20T01:10:47.914Z,5.80
2022-10-20T01:13:49.405Z,5.40
2022-10-20T01:16:51.537Z,5.90
2022-10-20T01:20:13.965Z,5.70
2022-10-20T01:23:30.597Z,5.90
2022-10-20T01:26:44.167Z,6.30
2022-10-20T01:29:41.114Z,6.10
2022-10-20T01:32:39.616Z,6.40
2022-10-20T01:35:41.374Z,6.50
2022-10-20T01:38:37.459Z,6.40
2022-10-20T01:41:34.284Z,6.40
2022-10-20T01:44:26.249Z,6.40
2022-10-20T01:47:18.101Z,6.10
2022-10-20T01:50:12.198Z,6.40
2022-10-20T01:53:03.474Z,6.10
2022-10-20T01:55:56.187Z,6.30
2022-10-20T01:59:12.084Z,6.10
2022-10-20T02:02:18.227Z,6.60
2022-10-20T02:05:34.635Z,6.70
2022-10-20T02:08:35.753Z,6.70
2022-10-20T02:11:34.153Z,6.50
2022-10-20T02:14:24.828Z,6.50
2022-10-20T02:17:17.950Z,6.60
2022-10-20T02:20:09.993Z,6.70
2022-10-20T02:23:01.915Z,6.80
2022-10-20T02:25:55.882Z,6.90
2022-10-20T02:28:50.925Z,7.10
2022-10-20T02:31:41.364Z,7.00
2022-10-20T02:34:31.717Z,6.50
2022-10-20T02:37:22.335Z,6.60
2022-10-20T02:40:14.365Z,6.40
2022-10-20T02:43:04.546Z,6.60
2022-10-20T02:45:54.930Z,6.80
2022-10-20T02:48:45.364Z,6.50
2022-10-20T02:51:35.183Z,6.30
2022-10-20T02:54:27.607Z,6.10
2022-10-20T02:57:18.249Z,6.20
2022-10-20T03:00:10.516Z,6.50
2022-10-20T03:03:00.633Z,6.60
2022-10-20T03:05:50.668Z,6.30
2022-10-20T03:08:41.371Z,6.50
2022-10-20T03:11:31.149Z,6.00
2022-10-20T03:14:20.923Z,6.50
2022-10-20T03:17:10.624Z,6.00
2022-10-20T03:20:00.790Z,6.40
2022-10-20T03:22:50.980Z,6.70
2022-10-20T03:25:40.863Z,6.20
2022-10-20T03:28:30.307Z,6.40
2022-10-20T03:31:20.354Z,6.50
2022-10-20T03:34:10.910Z,6.40
2022-10-20T03:37:01.283Z,6.00
2022-10-20T03:39:51.652Z,6.30
2022-10-20T03:42:41.723Z,6.30
2022-10-20T03:45:31.826Z,6.60
2022-10-20T03:48:21.857Z,6.20
2022-10-20T03:51:13.552Z,5.90
2022-10-20T03:54:03.471Z,5.90
2022-10-20T03:56:53.396Z,6.70
2022-10-20T03:59:43.582Z,6.30
2022-10-20T04:02:38.450Z,6.10
2022-10-20T04:05:28.127Z,6.30
2022-10-20T04:08:18.727Z,6.60
2022-10-20T04:11:09.036Z,6.30
2022-10-20T04:13:59.106Z,6.10
2022-10-20T04:16:49.081Z,6.10
2022-10-20T04:19:39.272Z,5.70
2022-10-20T04:22:29.461Z,6.00
2022-10-20T04:25:19.668Z,6.30
2022-10-20T04:28:09.536Z,6.80
2022-10-20T04:31:03.073Z,6.20
2022-10-20T04:33:53.497Z,6.60
2022-10-20T04:36:43.931Z,6.30
2022-10-20T04:39:34.079Z,5.90
2022-10-20T04:42:24.020Z,6.40
2022-10-20T04:45:14.786Z,6.60
2022-10-20T04:48:05.797Z,6.10
2022-10-20T04:51:05.163Z,5.80
2022-10-20T04:53:55.749Z,6.00
2022-10-20T04:56:46.174Z,6.00
2022-10-20T04:59:36.223Z,6.10
2022-10-20T05:02:26.757Z,6.60
2022-10-20T05:05:16.846Z,6.50
2022-10-20T05:08:07.404Z,6.60
2022-10-20T05:10:57.127Z,6.50
2022-10-20T05:13:47.721Z,6.50
2022-10-20T05:16:37.912Z,7.00
2022-10-20T05:19:27.986Z,6.50
2022-10-20T05:22:18.492Z,6.40
2022-10-20T05:25:35.167Z,6.60
2022-10-20T05:28:20.294Z,6.30
2022-10-20T05:31:11.152Z,6.20
2022-10-20T05:34:01.333Z,7.50
2022-10-20T05:36:53.334Z,6.70
2022-10-20T05:39:43.931Z,7.00
2022-10-20T05:42:35.256Z,7.10
2022-10-20T05:45:25.982Z,7.20
2022-10-20T05:48:16.394Z,6.80
2022-10-20T05:51:19.429Z,7.00
2022-10-20T05:54:12.500Z,7.20
2022-10-20T05:57:01.791Z,6.70
2022-10-20T05:59:52.099Z,6.90
2022-10-20T06:02:41.848Z,6.60
2022-10-20T06:05:31.616Z,6.50
2022-10-20T06:08:21.661Z,7.40
2022-10-20T06:11:13.667Z,7.00
2022-10-20T06:14:04.405Z,7.10
2022-10-20T06:16:55.513Z,7.20
2022-10-20T06:19:46.473Z,6.80
2022-10-20T06:22:36.293Z,7.00
2022-10-20T06:25:26.686Z,6.80
2022-10-20T06:28:16.762Z,6.90
2022-10-20T06:31:14.351Z,6.60
2022-10-20T06:34:05.794Z,7.10
2022-10-20T06:36:56.501Z,6.70
2022-10-20T06:39:46.554Z,7.00
2022-10-20T06:42:37.099Z,6.40
2022-10-20T06:45:28.366Z,6.40
2022-10-20T06:48:18.981Z,6.90
2022-10-20T06:51:11.422Z,6.40
2022-10-20T06:54:02.770Z,7.00
2022-10-20T06:56:52.859Z,6.80
2022-10-20T06:59:43.496Z,7.10
2022-10-20T07:02:33.768Z,7.00
2022-10-20T07:05:23.661Z,6.00
2022-10-20T07:08:13.976Z,6.90
2022-10-20T07:11:06.401Z,7.50
2022-10-20T07:13:57.443Z,7.00
2022-10-20T07:16:47.776Z,6.70
2022-10-20T07:19:38.060Z,7.30
2022-10-20T07:22:28.369Z,7.90
2022-10-20T07:25:21.629Z,7.50
2022-10-20T07:28:11.753Z,7.60
2022-10-20T07:31:05.291Z,8.00
2022-10-20T07:34:07.272Z,7.80
2022-10-20T07:37:03.221Z,7.60
2022-10-20T07:39:53.460Z,9.20
2022-10-20T07:42:43.254Z,8.10
2022-10-20T07:45:33.135Z,9.10
2022-10-20T07:48:23.282Z,8.50
2022-10-20T07:51:30.179Z,9.00
2022-10-20T07:54:20.393Z,10.50
2022-10-20T07:57:10.743Z,11.60
2022-10-20T08:00:00.819Z,11.10
2022-10-20T08:02:50.432Z,14.40
2022-10-20T08:05:40.546Z,13.80
2022-10-20T08:08:30.409Z,14.40
2022-10-20T08:11:20.871Z,14.10
2022-10-20T08:14:11.243Z,15.90
2022-10-20T08:17:04.800Z,13.40
2022-10-20T08:20:02.910Z,16.00
2022-10-20T08:22:53.170Z,15.70
2022-10-20T08:25:43.298Z,16.50
2022-10-20T08:28:33.135Z,17.70
2022-10-20T08:31:23.395Z,19.60
2022-10-20T08:34:12.946Z,19.60
2022-10-20T08:37:02.940Z,16.80
2022-10-20T08:39:53.554Z,17.40
2022-10-20T08:42:46.437Z,21.80
2022-10-20T08:45:38.593Z,21.10
2022-10-20T08:48:31.390Z,19.50
2022-10-20T08:51:24.794Z,18.90
2022-10-20T08:54:17.529Z,19.40
2022-10-20T08:57:16.892Z,17.00
2022-10-20T09:00:17.485Z,22.40
2022-10-20T09:03:18.544Z,22.90
2022-10-20T09:06:15.926Z,22.30
2022-10-20T09:09:06.415Z,21.20
2022-10-20T09:12:04.466Z,27.70
2022-10-20T09:14:54.497Z,28.70
2022-10-20T09:17:48.557Z,29.10
2022-10-20T09:20:44.918Z,18.40
2022-10-20T09:23:42.267Z,13.80
2022-10-20T09:26:57.617Z,12.30
2022-10-20T09:29:47.667Z,10.10
2022-10-20T09:32:46.638Z,11.30
2022-10-20T09:35:40.916Z,10.30
2022-10-20T09:38:32.423Z,10.00
2022-10-20T09:41:25.614Z,11.10
2022-10-20T09:44:23.729Z,11.00
2022-10-20T09:47:16.561Z,11.20
2022-10-20T09:50:10.174Z,11.10
2022-10-20T09:53:03.391Z,12.10
2022-10-20T09:55:54.038Z,11.60
2022-10-20T09:58:47.682Z,12.10
2022-10-20T10:01:53.333Z,14.10
2022-10-20T10:04:45.438Z,12.70
2022-10-20T10:07:35.547Z,12.80
2022-10-20T10:10:31.887Z,11.70
2022-10-20T10:13:27.630Z,13.30
2022-10-20T10:16:20.673Z,12.80
2022-10-20T10:19:17.901Z,12.70
2022-10-20T10:22:10.304Z,12.90
2022-10-20T10:25:01.666Z,11.60
2022-10-20T10:28:04.703Z,11.90
2022-10-20T10:31:19.477Z,11.90
2022-10-20T10:34:47.731Z,12.00
2022-10-20T10:37:39.750Z,11.30
2022-10-20T10:40:37.187Z,13.90
2022-10-20T10:43:37.234Z,13.10
2022-10-20T10:46:36.955Z,13.90
2022-10-20T10:49:55.670Z,12.70
2022-10-20T10:52:53.592Z,14.40
2022-10-20T10:55:55.327Z,12.50
2022-10-20T10:58:53.211Z,13.20
2022-10-20T11:01:57.573Z,12.20
2022-10-20T11:08:21.825Z,13.10
2022-10-20T11:11:22.739Z,14.00
2022-10-20T11:14:24.930Z,12.80
2022-10-20T11:17:31.772Z,15.50
2022-10-20T11:20:31.358Z,14.10
2022-10-20T11:23:58.873Z,14.80
2022-10-20T11:26:54.483Z,14.10
2022-10-20T11:29:47.236Z,15.10
2022-10-20T11:32:43.967Z,16.50
2022-10-20T11:35:41.159Z,13.70
2022-10-20T11:38:40.376Z,15.70
2022-10-20T11:41:35.979Z,15.90
2022-10-20T11:44:31.498Z,15.20
2022-10-20T11:47:28.103Z,13.40
2022-10-20T11:50:20.814Z,15.40
2022-10-20T11:53:39.244Z,13.80
2022-10-20T11:57:01.854Z,15.50
2022-10-20T12:00:23.557Z,14.90
2022-10-20T12:03:41.157Z,15.00
2022-10-20T12:07:19.018Z,13.70
2022-10-20T12:10:27.638Z,16.30
2022-10-20T12:13:33.603Z,15.90
2022-10-20T12:16:58.693Z,15.10
2022-10-20T12:19:52.698Z,15.20
2022-10-20T12:22:43.960Z,16.60
2022-10-20T12:25:42.866Z,17.20
2022-10-20T12:28:45.681Z,17.00
2022-10-20T12:32:06.753Z,17.20
2022-10-20T12:34:58.752Z,17.30
2022-10-20T12:37:58.395Z,18.10
2022-10-20T12:40:53.876Z,16.10
2022-10-20T12:43:55.128Z,14.60
2022-10-20T12:46:53.980Z,17.10
2022-10-20T12:49:54.115Z,17.50
2022-10-20T12:52:44.697Z,17.10
2022-10-20T12:55:42.015Z,16.90
2022-10-20T12:58:35.075Z,17.30
2022-10-20T13:01:28.284Z,14.50
2022-10-20T13:04:45.501Z,15.10
2022-10-20T13:08:19.168Z,16.00
2022-10-20T13:11:44.730Z,18.00
2022-10-20T13:14:55.507Z,15.40
2022-10-20T13:17:56.335Z,15.80
2022-10-20T13:20:50.867Z,16.50
2022-10-20T13:23:43.917Z,16.80
2022-10-20T13:26:38.944Z,15.50
2022-10-20T13:29:33.817Z,15.20
2022-10-20T13:32:28.775Z,16.80
2022-10-20T13:35:26.096Z,16.80
2022-10-20T13:38:21.269Z,15.50
2022-10-20T13:41:22.105Z,16.20
2022-10-20T13:44:23.245Z,15.60
2022-10-20T13:47:45.932Z,15.30
2022-10-20T13:50:39.626Z,14.80
2022-10-20T13:53:32.944Z,15.70
2022-10-20T13:56:35.828Z,15.40
2022-10-20T13:59:27.688Z,12.20
2022-10-20T14:02:27.756Z,13.70
2022-10-20T14:05:21.430Z,14.10
2022-10-20T14:08:17.833Z,14.60
2022-10-20T14:11:11.468Z,14.90
2022-10-20T14:14:03.044Z,15.20
2022-10-20T14:16:56.742Z,14.50
2022-10-20T14:19:47.004Z,15.10
2022-10-20T14:22:44.757Z,14.90
2022-10-20T14:25:35.771Z,13.70
2022-10-20T14:28:36.789Z,14.00
2022-10-20T14:31:27.483Z,13.10
2022-10-20T14:34:24.643Z,12.60
2022-10-20T14:37:28.510Z,13.50
2022-10-20T14:40:24.706Z,15.30
2022-10-20T14:43:20.914Z,14.00
2022-10-20T14:46:14.206Z,15.70
2022-10-20T14:49:04.749Z,15.50
2022-10-20T14:52:00.294Z,14.40
2022-10-20T14:54:51.868Z,14.00
2022-10-20T14:57:47.225Z,14.20
2022-10-20T15:00:38.759Z,16.40
2022-10-20T15:03:29.033Z,15.20
2022-10-20T15:06:19.825Z,15.00
2022-10-20T15:09:18.445Z,15.90
2022-10-20T15:12:18.709Z,15.80
2022-10-20T15:15:21.115Z,14.80
2022-10-20T15:18:19.096Z,12.80
2022-10-20T15:21:11.980Z,13.60
2022-10-20T15:24:02.273Z,15.20
2022-10-20T15:26:52.554Z,12.30
2022-10-20T15:29:46.349Z,11.60
2022-10-20T15:32:36.767Z,11.90
2022-10-20T15:35:30.942Z,12.20
2022-10-20T15:38:21.135Z,13.40
2022-10-20T15:41:13.062Z,12.70
2022-10-20T15:44:13.089Z,14.60
2022-10-20T15:47:02.761Z,14.90
2022-10-20T15:49:53.245Z,14.90
2022-10-20T15:52:43.218Z,15.10
2022-10-20T15:55:35.760Z,14.20
2022-10-20T15:58:25.875Z,13.40
2022-10-20T16:01:17.249Z,14.70
2022-10-20T16:04:18.454Z,15.30
2022-10-20T16:07:08.366Z,15.80
2022-10-20T16:09:58.606Z,16.50
2022-10-20T16:12:48.729Z,13.70
2022-10-20T16:15:39.041Z,13.80
2022-10-20T16:18:29.490Z,13.70
2022-10-20T16:21:19.591Z,15.10
2022-10-20T16:24:09.402Z,14.90
2022-10-20T16:26:59.396Z,15.40
2022-10-20T16:29:51.375Z,13.90
2022-10-20T16:32:42.004Z,25.60
2022-10-20T16:35:33.967Z,28.70
2022-10-20T16:38:23.881Z,27.30
2022-10-20T16:41:16.432Z,41.90
2022-10-20T16:44:09.032Z,29.80
2022-10-20T16:46:59.327Z,21.30
2022-10-20T16:49:49.355Z,18.90
2022-10-20T16:52:40.088Z,19.10
2022-10-20T16:55:30.769Z,16.80
2022-10-20T16:58:20.677Z,16.00
2022-10-20T17:01:12.974Z,16.50
2022-10-20T17:04:03.481Z,15.50
2022-10-20T17:06:53.913Z,16.70
2022-10-20T17:09:44.404Z,18.10
2022-10-20T17:12:34.745Z,13.00
2022-10-20T17:15:25.122Z,14.10
2022-10-20T17:18:15.054Z,16.40
2022-10-20T17:21:05.402Z,13.20
2022-10-20T17:23:55.888Z,14.00
2022-10-20T17:26:45.724Z,14.90
2022-10-20T17:29:35.786Z,14.30
2022-10-20T17:32:25.749Z,12.70
2022-10-20T17:35:15.972Z,11.70
2022-10-20T17:38:06.895Z,11.60
2022-10-20T17:40:57.397Z,10.50
2022-10-20T17:43:47.319Z,12.20
2022-10-20T17:46:37.147Z,12.80
2022-10-20T17:49:28.063Z,14.20
2022-10-20T17:52:17.949Z,14.30
2022-10-20T17:55:08.737Z,15.00
2022-10-20T17:58:01.406Z,15.10
2022-10-20T18:00:57.095Z,13.70
2022-10-20T18:03:48.195Z,14.60
2022-10-20T18:06:38.728Z,14.10
2022-10-20T18:09:28.633Z,12.90
2022-10-20T18:12:18.729Z,13.60
2022-10-20T18:15:10.355Z,13.70
2022-10-20T18:18:00.387Z,13.60
2022-10-20T18:20:58.294Z,14.00
2022-10-20T18:23:48.849Z,13.60
2022-10-20T18:26:40.144Z,13.60
2022-10-20T18:29:30.121Z,14.40
2022-10-20T18:32:20.252Z,13.40
2022-10-20T18:35:11.888Z,14.50
2022-10-20T18:38:02.976Z,13.70
2022-10-20T18:40:53.642Z,13.50
2022-10-20T18:43:45.988Z,13.10
2022-10-20T18:46:37.507Z,13.20
2022-10-20T18:49:28.292Z,11.40
2022-10-20T18:52:18.504Z,11.50
2022-10-20T18:55:09.533Z,11.50
2022-10-20T18:58:00.098Z,11.60
2022-10-20T19:00:59.593Z,11.20
2022-10-20T19:03:52.221Z,11.30
2022-10-20T19:06:44.510Z,12.10
2022-10-20T19:09:34.719Z,12.30
2022-10-20T19:12:25.227Z,11.30
2022-10-20T19:15:16.194Z,10.80
2022-10-20T19:18:06.488Z,10.90
2022-10-20T19:21:01.325Z,10.80
2022-10-20T19:23:54.841Z,10.20
2022-10-20T19:26:56.817Z,11.40
2022-10-20T19:29:57.792Z,12.30
2022-10-20T19:32:51.357Z,12.10
2022-10-20T19:35:41.038Z,12.90
2022-10-20T19:38:31.063Z,11.80
2022-10-20T19:41:21.367Z,12.40
2022-10-20T19:44:15.395Z,13.10
2022-10-20T19:47:06.415Z,12.90
2022-10-20T19:49:55.981Z,12.70
2022-10-20T19:52:46.096Z,13.10
2022-10-20T19:55:37.176Z,13.40
2022-10-20T19:58:27.497Z,13.70
2022-10-20T20:01:18.767Z,13.20
2022-10-20T20:04:10.861Z,13.00
2022-10-20T20:07:02.389Z,12.50
2022-10-20T20:09:53.249Z,12.00
2022-10-20T20:12:43.353Z,12.40
2022-10-20T20:15:34.924Z,13.40
2022-10-20T20:18:24.975Z,12.80
2022-10-20T20:21:15.441Z,12.70
2022-10-20T20:24:06.665Z,12.90
2022-10-20T20:26:57.144Z,12.80
2022-10-20T20:29:46.834Z,12.20
2022-10-20T20:32:38.636Z,12.70
2022-10-20T20:35:30.481Z,12.30
2022-10-20T20:38:20.625Z,12.00
2022-10-20T20:41:14.817Z,12.60
2022-10-20T20:44:08.244Z,12.00
2022-10-20T20:46:59.093Z,10.30
2022-10-20T20:49:49.687Z,10.00
2022-10-20T20:52:39.931Z,10.40
2022-10-20T20:55:30.223Z,9.50
2022-10-20T20:58:20.637Z,9.80
2022-10-20T21:01:14.081Z,9.60
2022-10-20T21:04:10.304Z,10.10
2022-10-20T21:07:02.790Z,10.20
2022-10-20T21:09:52.795Z,10.40
2022-10-20T21:12:42.736Z,10.20
2022-10-20T21:15:33.426Z,10.80
2022-10-20T21:18:23.493Z,10.70
2022-10-20T21:21:15.795Z,10.30
2022-10-20T21:24:07.964Z,10.40
2022-10-20T21:26:57.850Z,10.40
2022-10-20T21:29:48.750Z,11.20
2022-10-20T21:32:38.850Z,11.40
2022-10-20T21:35:29.201Z,11.40
2022-10-20T21:38:18.719Z,11.40
2022-10-20T21:41:11.362Z,12.20
2022-10-20T21:44:03.505Z,12.70
2022-10-20T21:46:54.599Z,11.80
2022-10-20T21:49:44.796Z,12.60
2022-10-20T21:52:35.650Z,12.00
2022-10-20T21:55:26.393Z,11.80
2022-10-20T21:58:18.571Z,10.60
2022-10-20T22:01:16.822Z,10.70
2022-10-20T22:04:07.174Z,10.30
2022-10-20T22:06:59.582Z,9.90
2022-10-20T22:09:49.248Z,9.50
2022-10-20T22:12:38.972Z,10.40
2022-10-20T22:15:29.370Z,10.30
2022-10-20T22:18:19.827Z,10.80
2022-10-20T22:21:13.879Z,10.20
2022-10-20T22:24:05.680Z,9.70
2022-10-20T22:26:55.985Z,10.40
2022-10-20T22:29:46.333Z,10.20
2022-10-20T22:32:36.871Z,10.70
2022-10-20T22:35:27.390Z,10.00
2022-10-20T22:38:17.161Z,10.20
2022-10-20T22:41:07.743Z,10.00
2022-10-20T22:43:58.262Z,10.20
2022-10-20T22:46:48.407Z,10.70
2022-10-20T22:49:38.125Z,10.60
2022-10-20T22:52:28.372Z,10.00
2022-10-20T22:55:19.096Z,10.60
2022-10-20T22:58:09.359Z,10.90
2022-10-20T23:00:59.889Z,10.40
2022-10-20T23:03:50.436Z,11.60
2022-10-20T23:06:41.489Z,10.90
2022-10-20T23:09:31.499Z,10.50
2022-10-20T23:12:21.170Z,10.40
2022-10-20T23:15:12.676Z,11.30
2022-10-20T23:18:02.466Z,11.40
2022-10-20T23:20:54.790Z,10.60
2022-10-20T23:23:47.841Z,11.50
2022-10-20T23:26:37.446Z,11.60
2022-10-20T23:29:27.332Z,12.20
2022-10-20T23:32:17.380Z,11.60
2022-10-20T23:35:08.465Z,11.30
2022-10-20T23:37:58.750Z,11.60
2022-10-20T23:40:48.630Z,11.60
2022-10-20T23:43:39.109Z,11.20
2022-10-20T23:46:32.548Z,11.70
2022-10-20T23:49:22.661Z,11.50
2022-10-20T23:52:12.854Z,12.10
2022-10-20T23:58:06.777Z,11.10
